Tiempo atmosférico en la estación meteorológica de Belmonte, Cuenca (800 m.)



Fecha
DESCASC
Temp. máxima en grados centígrados (hora)
DESCASC
Temp. mínima en grados centígrados (hora)
DESCASC
Temp. media en grados centígrados
DESCASC
Racha de viento máxima en m/sg (hora)
DESCASC
Velocidad máxima media en intervalos de 10 minutos(hora)
DESCASC
Precipitaciones diarias en mm
DESCASC
Precipitaciones de 00:00 a 06:00 en mm
DESCASC
Precipitaciones de 06:00 a 12:00 en mm
DESCASC
Precipitaciones de 12:00 a 18:00 en mm
DESCASC
Precipitaciones de 18:00 a 24:00 en mm
DESCASC
25-04-2019 15.3 (16:20) 7.2 (23:00) 11.3 17.22 (14:40) 6.39 (16:30) -- -- -- -- --
24-04-2019 15.1 (17:30) 3.1 (06:20) 9.1 14.72 (18:00) 7.22 (16:40) -- -- -- -- --
23-04-2019 13.9 (17:00) 5.4 (23:10) 9.6 12.22 (18:00) 5.28 (18:00) -- -- -- -- --
22-04-2019 16.1 (15:30) 7.7 (00:00) 11.9 7.78 (12:40) 3.33 (12:40) -- -- -- -- --
21-04-2019 11.6 (16:10) 7.1 (00:00) 9.4 5.83 (02:00) 3.06 (02:00) -- -- -- -- --
20-04-2019 13.7 (12:40) 7.3 (00:00) 10.5 8.06 (15:00) 3.89 (15:20) -- -- -- -- --
19-04-2019 11 (12:30) 7.5 (00:00) 9.3 5 (15:20) 2.5 (12:20) -- -- -- -- --
18-04-2019 11.9 (00:00) 8.3 (00:00) 10.1 10.83 (01:30) 5.83 (01:30) -- -- -- -- --
17-04-2019 22.2 (16:40) 9.4 (00:00) 15.8 16.39 (10:50) 10 (17:40) -- -- -- -- --
16-04-2019 22.8 (18:20) 6.2 (00:00) 14.5 13.61 (22:10) 7.78 (22:50) -- -- -- -- --
15-04-2019 26.5 (15:50) 9.7 (00:00) 18.1 12.5 (20:30) 5.83 (19:00) 0 0 0 0 0
14-04-2019 25.4 (18:10) 6.3 (00:00) 15.8 6.39 (15:20) 2.78 (15:20) 0 0 0 0 0
13-04-2019 22.7 (18:30) 2.9 (00:00) 12.8 6.94 (17:40) 2.78 (17:30) 0 0 0 0 0
12-04-2019 18.4 (18:40) 1.8 (00:00) 10.1 10 (12:50) 4.44 (12:00) 0 0 0 0 0
11-04-2019 16.4 (16:00) 3.2 (00:00) 9.8 10 (15:30) 5 (16:30) 0 0 0 0 0
10-04-2019 14.8 (14:50) 3.1 (00:00) 9 12.22 (17:30) 6.39 (17:30) 0 0 0 0 0
09-04-2019 13.6 (13:10) 3.9 (00:00) 8.8 12.78 (15:20) 5.28 (15:00) -- 0 0 0 --
08-04-2019 17.5 (17:10) 7.9 (00:00) 12.7 9.72 (17:50) 4.72 (17:00) 0 0 0 0 0
07-04-2019 13.7 (16:00) 2.8 (00:00) 8.2 9.72 (16:00) 4.44 (15:50) 0 0 0 0 0
06-04-2019 11.5 (15:00) 3 (00:00) 7.3 11.39 (14:50) 5.56 (14:50) 0 0 0 0 0
05-04-2019 9.6 (00:00) 3 (00:00) 6.3 11.39 (15:20) 4.72 (15:20) 0 0 0 0 0
04-04-2019 15.8 (18:20) 0 (00:00) 7.9 6.39 (15:10) 3.33 (23:40) 0 0 0 0 0
03-04-2019 19.6 (17:40) 6.7 (00:00) 13.2 10.83 (15:30) 5.56 (14:00) 0 0 0 0 0
02-04-2019 18.2 (18:10) 7.9 (00:00) 13.1 8.89 (16:40) 4.44 (19:40) 0 0 0 0 0
01-04-2019 16.1 (15:50) 8.3 (00:00) 12.2 7.78 (17:40) 4.17 (17:40) 0 0 0 0 0
31-03-2019 10.3 (14:40) 6.2 (00:00) 8.3 11.67 (07:40) 6.39 (05:20) 0 0 0 0 0
30-03-2019 18.1 (17:10) 4.7 (00:00) 11.4 12.5 (20:00) 7.5 (21:10) 0 0 0 0 0
29-03-2019 15.6 (17:00) 4.4 (00:00) 10 13.89 (13:50) 7.78 (22:20) 0 0 0 0 0
28-03-2019 18.2 (16:40) 3.4 (00:00) 10.8 8.89 (18:20) 4.44 (00:10) 0 0 0 0 0
27-03-2019 17.7 (16:50) 4.4 (00:00) 11.1 13.61 (00:50) 7.78 (00:50) 0 0 0 0 0

Gráficas

Temp. máximas Temp. mínimas Temp. medias Precipitaciones Rachas de viento máximas Velocidades máximas media en intervalos de 10 minutos

Datos horarios

Fecha y hora oficial Temperatura (ºC) Velocidad del viento (km/h) Dirección del viento Racha (km/h) Dirección de racha Precipitación (mm) Presión (hPa) Tendencia (hPa) Humedad (%)
2019-04-25 23:00:00 7.2 3 Oeste 8 Oeste 0 -- -- 88
2019-04-25 22:00:00 8 2 Oeste 9 Noroeste 0 -- -- 86
2019-04-25 21:00:00 9.5 5 Oeste 26 Oeste 0 -- -- 75
2019-04-25 20:00:00 11.5 12 Oeste 30 Noroeste 0 -- -- 63
2019-04-25 19:00:00 11.1 15 Oeste 36 Oeste 0 -- -- 68
2019-04-25 18:00:00 11.4 15 Oeste 41 Sudoeste 0 -- -- 78
2019-04-25 17:00:00 13.8 16 Oeste 47 Oeste 0 -- -- 68
2019-04-25 16:00:00 14.6 18 Sudoeste 40 Sudoeste 0 -- -- 58
2019-04-25 15:00:00 11.8 11 Oeste 62 Oeste 0 -- -- 78
2019-04-25 14:00:00 13.4 19 Oeste 42 Sudoeste 0 -- -- 64
2019-04-25 13:00:00 13.2 13 Oeste 37 Sudoeste 0 -- -- 68
2019-04-25 12:00:00 11.4 14 Oeste 38 Oeste 0 -- -- 76
2019-04-25 11:00:00 9.8 12 Oeste 32 Oeste 0 -- -- 78
2019-04-25 10:00:00 8.9 10 Oeste 25 Oeste 0 -- -- 93
2019-04-25 09:00:00 8.3 6 Sudoeste 16 Sudoeste 0 -- -- 98
2019-04-25 08:00:00 8.1 3 Sudoeste 18 Sudoeste 0 -- -- 97
2019-04-25 07:00:00 8.3 8 Oeste 19 Sudoeste 0 -- -- 95
2019-04-25 06:00:00 8.8 7 Oeste 17 Oeste 0 -- -- 95
2019-04-25 05:00:00 9.2 6 Oeste 33 Sudoeste 0 -- -- 94
2019-04-25 04:00:00 10.5 16 Sudoeste 35 Sudoeste 0 -- -- 95
2019-04-25 03:00:00 10.5 13 Sudoeste 35 Sur 0 -- -- 94
2019-04-25 02:00:00 10.3 18 Sur 35 Sudoeste 0 -- -- 95
2019-04-25 01:00:00 10.2 12 Sur 33 Sur 0 -- -- 97
2019-04-25 00:00:00 10.3 12 Sudoeste 28 Sudoeste 0 -- -- 97
2019-04-24 23:00:00 10.7 12 Sudoeste 34 Sudoeste 0 -- -- 94
2019-04-24 22:00:00 11.2 15 Sudoeste 43 Oeste 0 -- -- 88
2019-04-24 21:00:00 11.8 17 Sudoeste 51 Sudoeste 0 -- -- 80
2019-04-24 20:00:00 12.9 22 Sudoeste 48 Sudoeste 0 -- -- 74
2019-04-24 19:00:00 13.6 22 Sudoeste 51 Sudoeste 0 -- -- 69
2019-04-24 18:00:00 14.3 25 Sudoeste 53 Sudoeste 0 -- -- 66
2019-04-24 17:00:00 14.2 22 Sudoeste 49 Sudoeste 0 -- -- 68
2019-04-24 16:00:00 13 22 Sudoeste 47 Sudoeste 0 -- -- 71
2019-04-24 15:00:00 11.9 21 Sudoeste 48 Sudoeste 0 -- -- 75
2019-04-24 14:00:00 11.6 20 Sudoeste 45 Sudoeste 0 -- -- 74
2019-04-24 13:00:00 10.4 17 Sudoeste 46 Oeste 0 -- -- 77
2019-04-24 12:00:00 9.9 20 Sudoeste 42 Sudoeste 0 -- -- 75
2019-04-24 11:00:00 8.4 17 Sudoeste 32 Sudoeste 0 -- -- 79
2019-04-24 10:00:00 7.4 15 Sudoeste 31 Sudoeste 0 -- -- 82
2019-04-24 09:00:00 5.2 7 Sur 17 Sur 0 -- -- 92
2019-04-24 08:00:00 4.4 6 Sudoeste 18 Sudoeste 0 -- -- 96
2019-04-24 07:00:00 3.7 7 Sudoeste 17 Sudoeste 0 -- -- 98
2019-04-24 06:00:00 3.2 6 Sudoeste 17 Sudoeste 0 -- -- 97
2019-04-24 05:00:00 3.3 5 Sudoeste 15 Sudoeste 0 -- -- 97
2019-04-24 04:00:00 3.8 6 Sudoeste 20 Oeste 0 -- -- 96
2019-04-24 03:00:00 3.9 6 Sudoeste 14 Sudoeste 0 -- -- 96
2019-04-24 02:00:00 3.9 3 Sudoeste 14 Sudoeste 0 -- -- 95
2019-04-24 01:00:00 4.9 2 Sur 13 Oeste 0 -- -- 95
2019-04-24 00:00:00 5.4 6 Oeste 22 Sudoeste 0 -- -- 94
2019-04-23 23:00:00 5.6 10 Oeste 40 Oeste 0 -- -- 91
2019-04-23 22:00:00 6.8 7 Sudoeste 23 Oeste 0 -- -- 85
2019-04-23 21:00:00 7.7 8 Oeste 21 Sudoeste 0 -- -- 79
2019-04-23 20:00:00 9.4 12 Oeste 31 Oeste 0 -- -- 81
2019-04-23 19:00:00 12.6 13 Oeste 37 Sudoeste 0 -- -- 54
2019-04-23 18:00:00 13.3 19 Oeste 44 Oeste 0 -- -- 59
2019-04-23 17:00:00 13.9 16 Oeste 40 Sur 0 -- -- 45
2019-04-23 16:00:00 12.2 16 Sudoeste 32 Oeste 0 -- -- 60
2019-04-23 15:00:00 10.4 14 Oeste 32 Sudoeste 0 -- -- 74
2019-04-23 14:00:00 10.4 15 Oeste 31 Sudoeste 0 -- -- 80
2019-04-23 13:00:00 10.7 14 Sudoeste 28 Oeste 0 -- -- 83
2019-04-23 12:00:00 9.5 6 Sudeste 24 Oeste 0 -- -- 90
2019-04-23 11:00:00 9.9 9 Oeste 26 Oeste 0 -- -- 92
2019-04-23 10:00:00 9.9 6 Sudoeste 17 Sur 0 -- -- 89
2019-04-23 09:00:00 9.4 8 Sur 20 Sur 0 -- -- 91
2019-04-23 08:00:00 9.3 6 Sur 14 Sur 0 -- -- 90
2019-04-23 07:00:00 9.3 5 Sudoeste 18 Sudoeste 0 -- -- 92
2019-04-23 06:00:00 9.1 6 Sur 13 Sur 0 -- -- 92
2019-04-23 05:00:00 9 3 Sur 7 Sur 0 -- -- 91
2019-04-23 04:00:00 9.4 4 Sur 9 Sur 0 -- -- 91
2019-04-23 03:00:00 9.6 4 Sur 8 Sur 0 -- -- 89
2019-04-23 02:00:00 10.1 5 Sur 8 Sur 0 -- -- 87
2019-04-23 01:00:00 10.2 4 Sur 9 Sur 0 -- -- 87
2019-04-23 00:00:00 10.8 4 Sudeste 12 Sur 0 -- -- 87
2019-04-22 23:00:00 11.7 6 Sur 14 Sur 0 -- -- 81
2019-04-22 22:00:00 12.1 3 Sur 10 Sur 0 -- -- 79
2019-04-22 21:00:00 12.6 4 Sudeste 8 Sur 0 -- -- 78
2019-04-22 20:00:00 14.2 4 Sur 9 Sudoeste 0 -- -- 69
2019-04-22 19:00:00 13.9 4 Sudoeste 18 Sudoeste 0 -- -- 70
2019-04-22 18:00:00 15 7 Sudoeste 19 Oeste 0 -- -- 64
2019-04-22 17:00:00 15.1 8 Oeste 22 Sudoeste 0 -- -- 63
2019-04-22 16:00:00 15.2 7 Oeste 22 Oeste 0 -- -- 64
2019-04-22 15:00:00 15.3 8 Oeste 27 Oeste 0 -- -- 63
2019-04-22 14:00:00 15.2 9 Oeste 27 Oeste 0 -- -- 65
2019-04-22 13:00:00 15.1 10 Oeste 28 Oeste 0 -- -- 66
2019-04-22 12:00:00 13.1 8 Noroeste 18 Noroeste 0 -- -- 76
2019-04-22 11:00:00 10.7 5 Noroeste 14 Oeste 0 -- -- 91
2019-04-22 10:00:00 9.1 4 Noroeste 9 Noroeste 0 -- -- 96
2019-04-22 09:00:00 8.3 4 Noroeste 8 Noroeste 0 -- -- 98
2019-04-22 08:00:00 7.7 3 Noroeste 10 Norte 0 -- -- 98
2019-04-22 07:00:00 7.8 3 Norte 6 Norte 0 -- -- 99
2019-04-22 06:00:00 7.8 2 Noroeste 9 Noroeste 0 -- -- 99
2019-04-22 05:00:00 7.9 3 Noroeste 9 Norte 0 -- -- 99
2019-04-22 04:00:00 8.1 3 Noroeste 6 Noroeste 0 -- -- 99
2019-04-22 03:00:00 8.2 3 Norte 5 Norte 0 -- -- 99
2019-04-22 02:00:00 8.2 2 Noroeste 4 Noroeste 0 -- -- 98
2019-04-22 01:00:00 8.4 0 Calma 3 Noroeste 0 -- -- 97
2019-04-22 00:00:00 8.6 0 Calma 3 Sudoeste 0 -- -- 95
2019-04-21 23:00:00 8.9 0 Calma 4 Sudeste 0 -- -- 92
2019-04-21 22:00:00 9.4 3 Este 6 Este 0 -- -- 89
2019-04-21 21:00:00 9.7 0 Calma 10 Norte 0 -- -- 85
2019-04-21 20:00:00 10.1 5 Norte 15 Noroeste 0 -- -- 83
2019-04-21 19:00:00 10.7 10 Norte 19 Norte 0 -- -- 81
2019-04-21 18:00:00 10.6 5 Norte 13 Norte 0 -- -- 84
2019-04-21 17:00:00 10.8 5 Norte 18 Nordeste 0 -- -- 80
2019-04-21 16:00:00 11.5 7 Nordeste 18 Nordeste 0 -- -- 67
2019-04-21 15:00:00 11.1 10 Nordeste 17 Nordeste 0 -- -- 68
2019-04-21 14:00:00 11.1 7 Nordeste 18 Nordeste 0 -- -- 69
2019-04-21 13:00:00 10.8 5 Nordeste 15 Nordeste 0 -- -- 71
2019-04-21 12:00:00 10.1 5 Nordeste 14 Nordeste 0 -- -- 77
2019-04-21 11:00:00 10.6 6 Nordeste 16 Sudeste 0 -- -- 72
2019-04-21 10:00:00 10.3 5 Nordeste 16 Nordeste 0 -- -- 73
2019-04-21 09:00:00 7.6 3 Norte 13 Nordeste 0 -- -- 86
2019-04-21 08:00:00 7.1 5 Nordeste 9 Norte 0 -- -- 87
2019-04-21 07:00:00 7.1 3 Norte 13 Norte 0 -- -- 89
2019-04-21 06:00:00 7.2 7 Norte 17 Nordeste 0 -- -- 89
2019-04-21 05:00:00 7.3 5 Norte 13 Nordeste 0 -- -- 89
2019-04-21 04:00:00 7.5 5 Norte 18 Norte 0 -- -- 86
2019-04-21 03:00:00 7.9 5 Nordeste 18 Nordeste 0 -- -- 81
2019-04-21 02:00:00 8.3 11 Nordeste 21 Norte 0 -- -- 79
2019-04-21 01:00:00 8.1 5 Norte 14 Nordeste 0 -- -- 86
2019-04-21 00:00:00 8.5 6 Nordeste 18 Norte 0 -- -- 84
2019-04-20 23:00:00 8.2 8 Nordeste 25 Nordeste 0 -- -- 86
2019-04-20 22:00:00 8.3 12 Nordeste 26 Nordeste 0 -- -- 89
2019-04-20 21:00:00 8.9 9 Norte 22 Nordeste 0 -- -- 90
2019-04-20 20:00:00 9.2 7 Norte 14 Nordeste 0 -- -- 92
2019-04-20 19:00:00 9.3 4 Nordeste 18 Sudeste 0 -- -- 91
2019-04-20 18:00:00 9.3 9 Este 18 Este 0 -- -- 89
2019-04-20 17:00:00 9.8 12 Sudeste 27 Este 0 -- -- 86
2019-04-20 16:00:00 12.1 10 Sudeste 29 Este 0 -- -- 72
2019-04-20 15:00:00 12.6 11 Este 29 Este 0 -- -- 61
2019-04-20 14:00:00 13.5 5 Este 21 Este 0 -- -- 51
2019-04-20 13:00:00 13.5 3 Sudeste 18 Este 0 -- -- 60
2019-04-20 12:00:00 13.5 8 Este 22 Este 0 -- -- 60
2019-04-20 11:00:00 12.8 8 Este 20 Este 0 -- -- 62
2019-04-20 10:00:00 11.4 3 Nordeste 17 Norte 0 -- -- 71
2019-04-20 09:00:00 11.4 6 Este 21 Sudeste 0 -- -- 68
2019-04-20 08:00:00 9.7 5 Nordeste 23 Nordeste 0 -- -- 76
2019-04-20 07:00:00 7.9 3 Nordeste 11 Nordeste 0 -- -- 92
2019-04-20 06:00:00 7.3 0 Calma 8 Nordeste 0 -- -- 98
2019-04-20 05:00:00 7.5 3 Norte 16 Norte 0 -- -- 98
2019-04-20 04:00:00 8.1 8 Norte 17 Nordeste 0 -- -- 98
2019-04-20 03:00:00 8 6 Norte 12 Norte 0 -- -- 99
2019-04-20 02:00:00 7.8 3 Norte 10 Norte 0 -- -- 98
2019-04-20 01:00:00 7.8 5 Norte 12 Nordeste 0 -- -- 98
2019-04-20 00:00:00 7.6 3 Nordeste 12 Norte 0 -- -- 99
2019-04-19 23:00:00 7.7 5 Nordeste 9 Norte 0 -- -- 99
2019-04-19 22:00:00 7.5 0 Calma 4 Sudoeste 0 -- -- 99
2019-04-19 21:00:00 7.6 2 Norte 4 Norte 0 -- -- 98
2019-04-19 20:00:00 7.6 3 Sudeste 5 Este 0 -- -- 97
2019-04-19 19:00:00 7.6 2 Nordeste 6 Nordeste 0 -- -- 97
2019-04-19 18:00:00 7.8 2 Nordeste 10 Nordeste 0 -- -- 96
2019-04-19 17:00:00 7.8 4 Nordeste 15 Nordeste 0 -- -- 95
2019-04-19 16:00:00 8.2 4 Este 18 Este 0 -- -- 92
2019-04-19 15:00:00 8.8 7 Este 17 Este 0 -- -- 92
2019-04-19 14:00:00 9.6 4 Este 13 Sudeste 0 -- -- 91
2019-04-19 13:00:00 10.4 6 Este 17 Sudeste 0 -- -- 86
2019-04-19 12:00:00 10.9 8 Sudeste 15 Sudeste 0 -- -- 85
2019-04-19 11:00:00 10.2 3 Este 10 Este 0 -- -- 88
2019-04-19 10:00:00 9.1 6 Este 12 Sudeste 0 -- -- 93
2019-04-19 09:00:00 8.5 4 Sudeste 8 Este 0 -- -- 96
2019-04-19 08:00:00 8 5 Este 10 Sudeste 0 -- -- 97
2019-04-19 07:00:00 8.2 4 Sudeste 10 Sudeste 0 -- -- 97
2019-04-19 06:00:00 8.4 4 Sudeste 12 Sudeste 0 -- -- 96
2019-04-19 05:00:00 8.7 5 Sudeste 12 Sudeste 0 -- -- 96
2019-04-19 04:00:00 8.5 5 Sudeste 13 Sudeste 0 -- -- 96
2019-04-19 03:00:00 8.3 5 Sudeste 13 Este 0 -- -- 96
2019-04-19 02:00:00 8.2 8 Sudeste 15 Este 0 -- -- 94
2019-04-19 01:00:00 8.3 8 Este 16 Este 0 -- -- 95
2019-04-19 00:00:00 8.3 5 Sudeste 10 Este 0 -- -- 95
2019-04-18 23:00:00 8.6 4 Este 9 Sudeste 0 -- -- 95
2019-04-18 22:00:00 9.2 6 Sudeste 15 Sudeste 0 -- -- 94
2019-04-18 21:00:00 9.9 8 Sudeste 14 Sudeste 0 -- -- 91
2019-04-18 20:00:00 10.3 7 Sudeste 15 Sudeste 0 -- -- 86
2019-04-18 19:00:00 10.6 8 Sudeste 13 Sudeste 0 -- -- 86
2019-04-18 18:00:00 10.3 5 Sudeste 12 Sur 0 -- -- 89
2019-04-18 17:00:00 10.3 8 Sudeste 26 Sudeste 0 -- -- 89
2019-04-18 16:00:00 10.5 12 Este 37 Este 0 -- -- 88
2019-04-18 15:00:00 9.3 8 Este 18 Nordeste 0 -- -- 93
2019-04-18 14:00:00 8.7 9 Nordeste 17 Nordeste 0 -- -- 95
2019-04-18 13:00:00 8.6 3 Noroeste 13 Oeste 0 -- -- 97
2019-04-18 12:00:00 9 3 Oeste 9 Oeste 0 -- -- 98
2019-04-18 11:00:00 9 3 Sudoeste 7 Sudoeste 0 -- -- 98
2019-04-18 10:00:00 9 2 Sudoeste 10 Noroeste 0 -- -- 99
2019-04-18 09:00:00 9.2 4 Noroeste 21 Este 0 -- -- 96
2019-04-18 08:00:00 9.4 7 Este 30 Este 0 -- -- 96
2019-04-18 07:00:00 9.9 11 Sudeste 30 Este 0 -- -- 93
2019-04-18 06:00:00 9.2 15 Este 30 Este 0 -- -- 94
2019-04-18 05:00:00 9.6 12 Este 24 Sudeste 0 -- -- 90
2019-04-18 04:00:00 10.4 13 Sudeste 32 Sudeste 0 -- -- 85
2019-04-18 03:00:00 10.5 18 Sudeste 32 Este 0 -- -- 83
2019-04-18 02:00:00 10.8 18 Sudeste 39 Sudeste 0 -- -- 82
2019-04-18 01:00:00 11.4 20 Sudeste 37 Sudeste 0 -- -- 79
2019-04-18 00:00:00 11.9 21 Sudeste 44 Sudeste 0 -- -- 77
2019-04-17 23:00:00 12.7 21 Sudeste 40 Sudeste 0 -- -- 75
2019-04-17 22:00:00 14 21 Sudeste 44 Sudeste 0 -- -- 71
2019-04-17 21:00:00 15.4 26 Sudeste 52 Sudeste 0 -- -- 66
2019-04-17 20:00:00 17.6 24 Sudeste 51 Sudeste 0 -- -- 57
2019-04-17 19:00:00 20.1 27 Sudeste 54 Sudeste 0 -- -- 47
2019-04-17 18:00:00 21.2 32 Sudeste 59 Sudeste 0 -- -- 39
2019-04-17 17:00:00 22.2 31 Sudeste 55 Sudeste 0 -- -- 37
2019-04-17 16:00:00 20.8 30 Sudeste 53 Sudeste 0 -- -- 39
2019-04-17 15:00:00 21.2 26 Sudeste 45 Sudeste 0 -- -- 39
2019-04-17 14:00:00 19.7 28 Sudeste 48 Sudeste 0 -- -- 45
2019-04-17 13:00:00 17.3 29 Sudeste 51 Este 0 -- -- 52
2019-04-17 12:00:00 15.6 28 Sudeste 54 Sudeste 0 -- -- 59
2019-04-17 11:00:00 13.6 32 Sudeste 59 Este 0 -- -- 65
2019-04-17 10:00:00 11.9 32 Sudeste 57 Este 0 -- -- 74
2019-04-17 09:00:00 10.2 32 Sudeste 57 Sudeste 0 -- -- 82
2019-04-17 08:00:00 9.5 29 Sudeste 53 Este 0 -- -- 85
2019-04-17 07:00:00 9.5 27 Sudeste 51 Sudeste 0 -- -- 86
2019-04-17 06:00:00 9.5 27 Sudeste 48 Sudeste 0 -- -- 86
2019-04-17 05:00:00 9.5 24 Sudeste 51 Sudeste 0 -- -- 86
2019-04-17 04:00:00 9.6 27 Sudeste 48 Sudeste 0 -- -- 83
2019-04-17 03:00:00 10.2 26 Sudeste 46 Este 0 -- -- 78
2019-04-17 02:00:00 10.9 26 Sudeste 45 Este 0 -- -- 75
2019-04-17 01:00:00 11.5 29 Sudeste 50 Sudeste 0 -- -- 74
2019-04-17 00:00:00 12.3 26 Sudeste 49 Este 0 -- -- 71
2019-04-16 23:00:00 13.7 27 Sudeste 49 Sudeste 0 -- -- 68
2019-04-16 22:00:00 15.4 23 Sudeste 45 Sudeste 0 -- -- 63
2019-04-16 21:00:00 19.1 12 Sudeste 23 Sudeste 0 -- -- 32
2019-04-16 20:00:00 20.9 12 Sudeste 24 Sudeste 0 -- -- 31
2019-04-16 19:00:00 22.5 12 Sudeste 22 Sudeste 0 -- -- 28
2019-04-16 18:00:00 22.5 11 Sudeste 24 Sur 0 -- -- 25
2019-04-16 17:00:00 21.9 9 Sudeste 22 Sur 0 -- -- 29
2019-04-16 16:00:00 21.3 7 Sur 23 Sudeste 0 -- -- 30
2019-04-16 15:00:00 20.5 12 Sur 21 Sur 0 -- -- 30
2019-04-16 14:00:00 19.4 8 Sudeste 22 Sudeste 0 -- -- 34
2019-04-16 13:00:00 18.6 5 Sur 19 Sur 0 -- -- 42
2019-04-16 12:00:00 16.9 4 Nordeste 14 Nordeste 0 -- -- 47
2019-04-16 11:00:00 15.6 5 Nordeste 17 Nordeste 0 -- -- 53
2019-04-16 10:00:00 13.6 4 Este 11 Este 0 -- -- 62
2019-04-16 09:00:00 9.6 3 Nordeste 8 Nordeste 0 -- -- 81
2019-04-16 08:00:00 7.4 3 Nordeste 9 Nordeste 0 -- -- 90
2019-04-16 07:00:00 6.2 5 Nordeste 9 Norte 0 -- -- 90
2019-04-16 06:00:00 7.1 2 Nordeste 6 Nordeste 0 -- -- 87
2019-04-16 05:00:00 7.6 0 Calma 6 Sudoeste 0 -- -- 86
2019-04-16 04:00:00 9.4 0 Calma 8 Noroeste 0 -- -- 81
2019-04-16 03:00:00 9.9 3 Oeste 8 Oeste 0 -- -- 79
2019-04-16 02:00:00 10.9 3 Noroeste 16 Noroeste 0 -- -- 73
2019-04-16 01:00:00 12.4 11 Noroeste 21 Noroeste 0 -- -- 66
2019-04-16 00:00:00 13.5 9 Noroeste 21 Noroeste 0 -- -- 64
2019-04-15 23:00:00 14 8 Noroeste 39 Noroeste 0 -- -- 67
2019-04-15 22:00:00 15.2 14 Noroeste 32 Noroeste 0 -- -- 62
2019-04-15 21:00:00 18.9 5 Oeste 45 Oeste 0 -- -- 55
2019-04-15 20:00:00 22.3 17 Sudoeste 38 Sudoeste 0 -- -- 26
2019-04-15 19:00:00 25.4 21 Oeste 43 Sudoeste 0 -- -- 24
2019-04-15 18:00:00 25.7 12 Sudoeste 39 Sudoeste 0 -- -- 26
2019-04-15 17:00:00 26.4 16 Sudoeste 38 Sudoeste 0 -- -- 24
2019-04-15 16:00:00 26.2 19 Oeste 40 Oeste 0 -- -- 27
2019-04-15 15:00:00 24.5 10 Sudoeste 33 Sur 0 -- -- 36
2019-04-15 14:00:00 22.4 10 Sur 24 Este 0 -- -- 45
2019-04-15 13:00:00 20.6 14 Sudeste 24 Sudeste 0 -- -- 50
2019-04-15 12:00:00 19.7 14 Sudeste 28 Sudeste 0 -- -- 55
2019-04-15 11:00:00 18.5 14 Sudeste 24 Sudeste 0 -- -- 59
2019-04-15 10:00:00 15.4 10 Sudeste 18 Sudeste 0 -- -- 69
2019-04-15 09:00:00 11.3 0 Calma 6 Norte 0 -- -- 82
2019-04-15 08:00:00 10.4 4 Nordeste 6 Este 0 -- -- 86
2019-04-15 07:00:00 9.8 3 Nordeste 7 Nordeste 0 -- -- 85
2019-04-15 06:00:00 10.2 4 Nordeste 8 Nordeste 0 -- -- 84
2019-04-15 05:00:00 10.6 5 Nordeste 8 Nordeste 0 -- -- 81
2019-04-15 04:00:00 11.5 4 Nordeste 7 Este 0 -- -- 78
2019-04-15 03:00:00 12.1 2 Sudeste 7 Este 0 -- -- 76
2019-04-15 02:00:00 12.8 4 Este 7 Este 0 -- -- 72
2019-04-15 01:00:00 13.4 2 Este 6 Nordeste 0 -- -- 70
2019-04-15 00:00:00 14.6 3 Este 6 Este 0 -- -- 65
2019-04-14 23:00:00 16.4 0 Calma 5 Sur 0 -- -- 60
2019-04-14 22:00:00 17.2 3 Sur 8 Sudoeste 0 -- -- 55
2019-04-14 21:00:00 19.2 5 Sudoeste 20 Sudoeste 0 -- -- 51
2019-04-14 20:00:00 21.8 10 Sudoeste 22 Sudoeste 0 -- -- 45
2019-04-14 19:00:00 24.7 9 Oeste 20 Oeste 0 -- -- 37
2019-04-14 18:00:00 25.3 6 Oeste 19 Oeste 0 -- -- 31
2019-04-14 17:00:00 24.2 6 Oeste 22 Oeste 0 -- -- 33
2019-04-14 16:00:00 23.8 7 Oeste 23 Oeste 0 -- -- 34
2019-04-14 15:00:00 23 6 Oeste 17 Sudoeste 0 -- -- 38
2019-04-14 14:00:00 21.5 4 Sudoeste 16 Oeste 0 -- -- 40
2019-04-14 13:00:00 19.4 7 Oeste 16 Sudoeste 0 -- -- 47
2019-04-14 12:00:00 18 4 Oeste 13 Sudoeste 0 -- -- 53
2019-04-14 11:00:00 15.3 3 Oeste 9 Sudoeste 0 -- -- 56
2019-04-14 10:00:00 13.2 3 Sudoeste 6 Sudoeste 0 -- -- 56
2019-04-14 09:00:00 7.9 0 Calma 6 Nordeste 0 -- -- 72
2019-04-14 08:00:00 6.3 0 Calma 3 Nordeste 0 -- -- 74
2019-04-14 07:00:00 6.6 2 Este 5 Este 0 -- -- 72
2019-04-14 06:00:00 6.9 2 Nordeste 8 Nordeste 0 -- -- 69
2019-04-14 05:00:00 7 4 Nordeste 8 Este 0 -- -- 66
2019-04-14 04:00:00 7.3 2 Este 7 Nordeste 0 -- -- 57
2019-04-14 03:00:00 7.1 5 Nordeste 9 Nordeste 0 -- -- 48
2019-04-14 02:00:00 7.2 5 Nordeste 10 Nordeste 0 -- -- 46
2019-04-14 01:00:00 7.8 0 Calma 10 Nordeste 0 -- -- 45
2019-04-14 00:00:00 8.8 5 Nordeste 8 Este 0 -- -- 43
2019-04-13 23:00:00 10.4 3 Nordeste 9 Nordeste 0 -- -- 39
2019-04-13 22:00:00 12.6 3 Nordeste 9 Este 0 -- -- 33
2019-04-13 21:00:00 16.8 2 Norte 14 Noroeste 0 -- -- 22
2019-04-13 20:00:00 19.1 7 Noroeste 19 Noroeste 0 -- -- 18
2019-04-13 19:00:00 22.1 9 Oeste 24 Oeste 0 -- -- 16
2019-04-13 18:00:00 22.3 9 Noroeste 25 Noroeste 0 -- -- 16
2019-04-13 17:00:00 21.8 7 Oeste 23 Oeste 0 -- -- 19
2019-04-13 16:00:00 21.1 7 Oeste 18 Noroeste 0 -- -- 20
2019-04-13 15:00:00 20.2 6 Oeste 24 Oeste 0 -- -- 23
2019-04-13 14:00:00 19.4 7 Noroeste 21 Noroeste 0 -- -- 25
2019-04-13 13:00:00 18.8 8 Oeste 23 Noroeste 0 -- -- 28
2019-04-13 12:00:00 17.2 7 Oeste 15 Sudoeste 0 -- -- 32
2019-04-13 11:00:00 14.3 4 Oeste 9 Oeste 0 -- -- 43
2019-04-13 10:00:00 10.6 0 Calma 11 Oeste 0 -- -- 50
2019-04-13 09:00:00 5.7 3 Norte 11 Oeste 0 -- -- 65
2019-04-13 08:00:00 3.3 3 Norte 10 Noroeste 0 -- -- 68
2019-04-13 07:00:00 3.6 2 Nordeste 7 Nordeste 0 -- -- 68
2019-04-13 06:00:00 4.2 2 Nordeste 6 Este 0 -- -- 67
2019-04-13 05:00:00 4.4 0 Calma 4 Nordeste 0 -- -- 69
2019-04-13 04:00:00 4.9 0 Calma 6 Oeste 0 -- -- 66
2019-04-13 03:00:00 5.2 3 Nordeste 8 Nordeste 0 -- -- 64
2019-04-13 02:00:00 6.6 2 Nordeste 6 Nordeste 0 -- -- 60
2019-04-13 01:00:00 7.3 4 Nordeste 8 Oeste 0 -- -- 58
2019-04-13 00:00:00 8.6 2 Nordeste 10 Este 0 -- -- 54
2019-04-12 23:00:00 9.7 4 Nordeste 11 Nordeste 0 -- -- 50
2019-04-12 22:00:00 11.6 2 Nordeste 6 Noroeste 0 -- -- 45
2019-04-12 21:00:00 13.8 3 Noroeste 16 Norte 0 -- -- 38
2019-04-12 20:00:00 15.8 10 Noroeste 22 Noroeste 0 -- -- 32
2019-04-12 19:00:00 17.7 12 Noroeste 26 Noroeste 0 -- -- 30
2019-04-12 18:00:00 18.2 12 Noroeste 29 Noroeste 0 -- -- 31
2019-04-12 17:00:00 17.2 15 Noroeste 32 Noroeste 0 -- -- 33
2019-04-12 16:00:00 16.7 14 Noroeste 35 Noroeste 0 -- -- 35
2019-04-12 15:00:00 16.3 15 Noroeste 31 Noroeste 0 -- -- 37
2019-04-12 14:00:00 15.3 14 Norte 29 Norte 0 -- -- 38
2019-04-12 13:00:00 13.9 15 Norte 36 Norte 0 -- -- 41
2019-04-12 12:00:00 12.7 16 Norte 31 Norte 0 -- -- 44
2019-04-12 11:00:00 11.3 9 Noroeste 21 Norte 0 -- -- 54
2019-04-12 10:00:00 8.8 4 Norte 12 Norte 0 -- -- 62
2019-04-12 09:00:00 3.8 2 Sudoeste 5 Norte 0 -- -- 78
2019-04-12 08:00:00 2 2 Norte 4 Norte 0 -- -- 83
2019-04-12 07:00:00 3.3 2 Sudoeste 9 Nordeste 0 -- -- 73
2019-04-12 06:00:00 4.7 4 Norte 10 Norte 0 -- -- 73
2019-04-12 05:00:00 5.1 6 Norte 15 Norte 0 -- -- 74
2019-04-12 04:00:00 4.6 0 Calma 9 Norte 0 -- -- 74
2019-04-12 03:00:00 6.3 2 Norte 12 Norte 0 -- -- 66
2019-04-12 02:00:00 7 6 Norte 12 Norte 0 -- -- 62
2019-04-12 01:00:00 7.3 5 Norte 11 Nordeste 0 -- -- 61
2019-04-12 00:00:00 8.5 5 Norte 15 Norte 0 -- -- 56
2019-04-11 23:00:00 8.6 5 Nordeste 11 Nordeste 0 -- -- 56
2019-04-11 22:00:00 10 5 Nordeste 18 Norte 0 -- -- 51
2019-04-11 21:00:00 12.1 8 Norte 26 Norte 0 -- -- 43
2019-04-11 20:00:00 14 8 Norte 26 Noroeste 0 -- -- 34
2019-04-11 19:00:00 15.2 12 Norte 28 Norte 0 -- -- 31
2019-04-11 18:00:00 15.6 12 Norte 33 Norte 0 -- -- 31
2019-04-11 17:00:00 16.4 17 Norte 36 Norte 0 -- -- 30
2019-04-11 16:00:00 16.4 16 Norte 36 Noroeste 0 -- -- 34
2019-04-11 15:00:00 15.4 15 Noroeste 35 Norte 0 -- -- 40
2019-04-11 14:00:00 14.6 14 Noroeste 30 Norte 0 -- -- 40
2019-04-11 13:00:00 13.4 13 Norte 28 Norte 0 -- -- 46
2019-04-11 12:00:00 11.9 16 Norte 31 Norte 0 -- -- 51
2019-04-11 11:00:00 10.2 13 Norte 29 Norte 0 -- -- 59
2019-04-11 10:00:00 7.9 12 Norte 24 Norte 0 -- -- 71
2019-04-11 09:00:00 4.6 8 Norte 18 Nordeste 0 -- -- 83
2019-04-11 08:00:00 3.2 6 Norte 17 Norte 0 -- -- 85
2019-04-11 07:00:00 3.6 6 Norte 14 Nordeste 0 -- -- 83
2019-04-11 06:00:00 3.8 6 Norte 12 Norte 0 -- -- 83
2019-04-11 05:00:00 4.1 5 Norte 10 Norte 0 -- -- 84
2019-04-11 04:00:00 5.1 5 Norte 13 Norte 0 -- -- 82
2019-04-11 03:00:00 4.9 5 Nordeste 13 Nordeste 0 -- -- 83
2019-04-11 02:00:00 5.3 3 Norte 8 Norte 0 -- -- 86
2019-04-11 01:00:00 5 0 Calma 6 Nordeste 0 -- -- 88
2019-04-11 00:00:00 5.6 2 Nordeste 5 Nordeste 0 -- -- 85
2019-04-10 23:00:00 6.1 2 Nordeste 7 Nordeste 0 -- -- 83
2019-04-10 22:00:00 7.3 2 Nordeste 4 Este 0 -- -- 79
2019-04-10 21:00:00 8 3 Sur 4 Oeste 0 -- -- 75
2019-04-10 20:00:00 9.3 2 Oeste 12 Oeste 0 -- -- 66
2019-04-10 19:00:00 9.5 3 Oeste 20 Nordeste 0 -- -- 66
2019-04-10 18:00:00 9.5 15 Nordeste 44 Nordeste 0 -- -- 65
2019-04-10 17:00:00 13.7 14 Noroeste 36 Noroeste 0 -- -- 45
2019-04-10 16:00:00 12.8 17 Noroeste 36 Noroeste 0 -- -- 45
2019-04-10 15:00:00 14.2 14 Noroeste 36 Noroeste 0 -- -- 43
2019-04-10 14:00:00 12.3 12 Noroeste 41 Noroeste 0 -- -- 49
2019-04-10 13:00:00 12.6 18 Noroeste 43 Noroeste 0 -- -- 48
2019-04-10 12:00:00 10.3 12 Noroeste 34 Noroeste 0 -- -- 65
2019-04-10 11:00:00 10 14 Noroeste 32 Noroeste 0 -- -- 67
2019-04-10 10:00:00 7.8 9 Oeste 21 Noroeste 0 -- -- 77
2019-04-10 09:00:00 4.4 2 Oeste 12 Oeste 0 -- -- 93
2019-04-10 08:00:00 3.4 3 Noroeste 14 Noroeste 0 -- -- 94
2019-04-10 07:00:00 3.6 3 Oeste 5 Oeste 0 -- -- 94
2019-04-10 06:00:00 4.6 2 Noroeste 8 Noroeste 0 -- -- 93
2019-04-10 05:00:00 5 0 Calma 4 Sudoeste 0 -- -- 92
2019-04-10 04:00:00 5.6 2 Oeste 6 Oeste 0 -- -- 89
2019-04-10 03:00:00 5.9 3 Oeste 10 Noroeste 0 -- -- 87
2019-04-10 02:00:00 6.3 4 Noroeste 13 Oeste 0 -- -- 87
2019-04-10 01:00:00 6.2 2 Oeste 14 Oeste 0 -- -- 85
2019-04-10 00:00:00 6.3 4 Oeste 8 Oeste 0 -- -- 84
2019-04-09 23:00:00 7.3 0 Calma 3 Sudoeste 0 -- -- 83
2019-04-09 22:00:00 7.9 0 Calma 15 Sudoeste 0 -- -- 79
2019-04-09 21:00:00 8.8 5 Noroeste 24 Oeste 0 -- -- 71
2019-04-09 20:00:00 9.4 9 Noroeste -- -- -- -- -- 67
2019-04-09 19:00:00 9.8 9 Norte 34 Noroeste 0 -- -- 63
2019-04-09 18:00:00 13.5 13 Oeste 36 Oeste 0 -- -- 56
2019-04-09 17:00:00 12 15 Noroeste 37 Noroeste 0 -- -- 64
2019-04-09 16:00:00 8.1 14 Oeste 46 Oeste 0 -- -- 86
2019-04-09 15:00:00 11.4 19 Oeste 43 Oeste 0 -- -- 68
2019-04-09 14:00:00 12.9 18 Oeste 38 Oeste 0 -- -- 51
2019-04-09 13:00:00 13.4 15 Oeste 35 Oeste 0 -- -- 54
2019-04-09 12:00:00 10.3 13 Oeste 28 Oeste 0 -- -- 62
2019-04-09 11:00:00 9.2 9 Oeste 24 Oeste 0 -- -- 76
2019-04-09 10:00:00 7 7 Oeste 18 Sudoeste 0 -- -- 86
2019-04-09 09:00:00 4.7 0 Calma 6 Noroeste 0 -- -- 92
2019-04-09 08:00:00 4.3 2 Noroeste 5 Oeste 0 -- -- 94
2019-04-09 07:00:00 4.6 2 Noroeste 11 Oeste 0 -- -- 92
2019-04-09 06:00:00 5.1 2 Oeste 7 Oeste 0 -- -- 91
2019-04-09 05:00:00 5.8 0 Calma 10 Noroeste 0 -- -- 87
2019-04-09 04:00:00 5.8 0 Calma 6 Oeste 0 -- -- 84
2019-04-09 03:00:00 7.2 3 Noroeste 12 Noroeste 0 -- -- 81
2019-04-09 02:00:00 8.3 9 Noroeste 27 Noroeste 0 -- -- 77
2019-04-09 01:00:00 7.6 7 Noroeste 21 Noroeste 0 -- -- 77
2019-04-09 00:00:00 8.5 3 Oeste 9 Noroeste 0 -- -- 73
2019-04-08 23:00:00 9.2 3 Oeste 8 Noroeste 0 -- -- 70
2019-04-08 22:00:00 10.5 4 Noroeste 21 Oeste 0 -- -- 66
2019-04-08 21:00:00 12.8 11 Oeste 26 Oeste 0 -- -- 56
2019-04-08 20:00:00 14.7 11 Oeste 28 Oeste 0 -- -- 50
2019-04-08 19:00:00 15.7 12 Oeste 34 Oeste 0 -- -- 50
2019-04-08 18:00:00 16.7 14 Oeste 35 Oeste 0 -- -- 47
2019-04-08 17:00:00 17.1 17 Oeste 34 Noroeste 0 -- -- 45
2019-04-08 16:00:00 16.4 14 Oeste 33 Oeste 0 -- -- 53
2019-04-08 15:00:00 16.2 13 Oeste 31 Norte 0 -- -- 55
2019-04-08 14:00:00 13.9 13 Noroeste 32 Oeste 0 -- -- 76
2019-04-08 13:00:00 12.5 11 Oeste 28 Oeste 0 -- -- 81
2019-04-08 12:00:00 11.8 9 Oeste 23 Sudoeste 0 -- -- 85
2019-04-08 11:00:00 10.5 9 Oeste 22 Sudoeste 0 -- -- 92
2019-04-08 10:00:00 9.5 11 Oeste 21 Sudoeste 0 -- -- 98
2019-04-08 09:00:00 9.2 6 Sudoeste 16 Sudoeste 0 -- -- 99
2019-04-08 08:00:00 8.9 6 Sudoeste 16 Oeste 0 -- -- 99
2019-04-08 07:00:00 8.9 8 Oeste 17 Sudoeste 0 -- -- 99
2019-04-08 06:00:00 8.9 8 Oeste 18 Oeste 0 -- -- 98
2019-04-08 05:00:00 8.9 8 Oeste 19 Oeste 0 -- -- 98
2019-04-08 04:00:00 8.9 6 Oeste 17 Sudoeste 0 -- -- 98
2019-04-08 03:00:00 8 6 Sur 12 Sur 0 -- -- 96
2019-04-08 02:00:00 7.9 5 Sudeste 10 Sudeste 0 -- -- 95
2019-04-08 01:00:00 8 2 Sudeste 4 Este 0 -- -- 93
2019-04-08 00:00:00 8.2 2 Sudoeste 7 Sudoeste 0 -- -- 91
2019-04-07 23:00:00 8.7 3 Sudoeste 9 Sudoeste 0 -- -- 87
2019-04-07 22:00:00 9.1 3 Oeste 17 Oeste 0 -- -- 82
2019-04-07 21:00:00 10 4 Oeste 18 Oeste 0 -- -- 75
2019-04-07 20:00:00 11.3 5 Noroeste 26 Oeste 0 -- -- 59
2019-04-07 19:00:00 12.2 10 Oeste 34 Oeste 0 -- -- 55
2019-04-07 18:00:00 13 14 Oeste 33 Noroeste 0 -- -- 51
2019-04-07 17:00:00 13.2 9 Noroeste 33 Noroeste 0 -- -- 49
2019-04-07 16:00:00 13.7 14 Noroeste 35 Noroeste 0 -- -- 44
2019-04-07 15:00:00 13.2 13 Noroeste 35 Oeste 0 -- -- 46
2019-04-07 14:00:00 12.9 13 Oeste 33 Oeste 0 -- -- 44
2019-04-07 13:00:00 11.4 13 Noroeste 34 Noroeste 0 -- -- 55
2019-04-07 12:00:00 9.8 13 Noroeste 29 Noroeste 0 -- -- 60
2019-04-07 11:00:00 8 12 Noroeste 33 Noroeste 0 -- -- 73
2019-04-07 10:00:00 6.7 11 Noroeste 31 Noroeste 0 -- -- 83
2019-04-07 09:00:00 4.7 8 Noroeste 28 Noroeste 0 -- -- 92
2019-04-07 08:00:00 3.8 6 Noroeste 17 Noroeste 0 -- -- 95
2019-04-07 07:00:00 4 3 Noroeste 14 Noroeste 0 -- -- 95
2019-04-07 06:00:00 4.1 4 Oeste 9 Oeste 0 -- -- 97
2019-04-07 05:00:00 4 2 Oeste 9 Oeste 0 -- -- 97
2019-04-07 04:00:00 3.7 3 Sudoeste 16 Oeste 0 -- -- 96
2019-04-07 03:00:00 3 4 Sudoeste 13 Sudoeste 0 -- -- 95
2019-04-07 02:00:00 3.1 3 Sudoeste 10 Sudoeste 0 -- -- 92
2019-04-07 01:00:00 4.3 4 Sudoeste 13 Sudoeste 0 -- -- 88
2019-04-07 00:00:00 4.8 5 Oeste 19 Oeste 0 -- -- 82
2019-04-06 23:00:00 5.8 5 Oeste 18 Sudoeste 0 -- -- 76
2019-04-06 22:00:00 5.8 7 Oeste 22 Oeste 0 -- -- 77
2019-04-06 21:00:00 6.4 9 Oeste 27 Oeste 0 -- -- 75
2019-04-06 20:00:00 8.1 12 Oeste 36 Oeste 0 -- -- 65
2019-04-06 19:00:00 8.4 12 Oeste 35 Oeste 0 -- -- 66
2019-04-06 18:00:00 10.2 12 Oeste 39 Oeste 0 -- -- 64
2019-04-06 17:00:00 6.9 14 Oeste 41 Oeste 0 -- -- 83
2019-04-06 16:00:00 10.5 14 Oeste 39 Oeste 0 -- -- 60
2019-04-06 15:00:00 11.5 19 Oeste 41 Oeste 0 -- -- 62
2019-04-06 14:00:00 8.6 15 Oeste 35 Sudoeste 0 -- -- 81
2019-04-06 13:00:00 7.9 9 Oeste 29 Oeste 0 -- -- 75
2019-04-06 12:00:00 5.9 13 Oeste 27 Sudoeste 0 -- -- 87
2019-04-06 11:00:00 6 9 Oeste 27 Sudoeste 0 -- -- 87
2019-04-06 10:00:00 5.2 10 Oeste 24 Sudoeste 0 -- -- 90
2019-04-06 09:00:00 4.2 10 Oeste 21 Oeste 0 -- -- 95
2019-04-06 08:00:00 3.3 5 Oeste 21 Sudoeste 0 -- -- 96
2019-04-06 07:00:00 3.4 6 Oeste 17 Sudoeste 0 -- -- 96
2019-04-06 06:00:00 3.5 5 Oeste 27 Oeste 0 -- -- 96
2019-04-06 05:00:00 3.6 9 Oeste 20 Sudoeste 0 -- -- 96
2019-04-06 04:00:00 3.7 9 Oeste 22 Sudoeste 0 -- -- 96
2019-04-06 03:00:00 3.6 9 Oeste 23 Oeste 0 -- -- 94
2019-04-06 02:00:00 4 5 Sudoeste 18 Oeste 0 -- -- 93
2019-04-06 01:00:00 3.8 4 Oeste 11 Sudoeste 0 -- -- 89
2019-04-06 00:00:00 3 0 Calma 5 Sudoeste 0 -- -- 89
2019-04-05 23:00:00 3.3 3 Sudoeste 10 Sudoeste 0 -- -- 86
2019-04-05 22:00:00 4.2 3 Sudoeste 15 Noroeste 0 -- -- 78
2019-04-05 21:00:00 5.2 6 Noroeste 22 Oeste 0 -- -- 76
2019-04-05 20:00:00 6.5 9 Oeste 31 Noroeste 0 -- -- 79
2019-04-05 19:00:00 5.6 6 Noroeste 33 Oeste 0 -- -- 88
2019-04-05 18:00:00 7.6 11 Sudoeste 24 Sudeste 0 -- -- 82
2019-04-05 17:00:00 7.1 8 Sudoeste 23 Sudoeste 0 -- -- 87
2019-04-05 16:00:00 5.6 8 Sudoeste 41 Sudoeste 0 -- -- 91
2019-04-05 15:00:00 7.5 15 Sudoeste 35 Sudoeste 0 -- -- 88
2019-04-05 14:00:00 7.6 11 Sudoeste 27 Oeste 0 -- -- 82
2019-04-05 13:00:00 7.4 10 Sudoeste 25 Sudoeste 0 -- -- 82
2019-04-05 12:00:00 6.9 13 Sur 26 Sudoeste 0 -- -- 85
2019-04-05 11:00:00 7.7 13 Sudoeste 31 Sudoeste 0 -- -- 76
2019-04-05 10:00:00 7.2 12 Sur 28 Sur 0 -- -- 81
2019-04-05 09:00:00 6.3 11 Sur 21 Sur 0 -- -- 82
2019-04-05 08:00:00 6.3 10 Sur 19 Sur 0 -- -- 80
2019-04-05 07:00:00 7 6 Sudoeste 22 Sudoeste 0 -- -- 70
2019-04-05 06:00:00 7 7 Sudoeste 21 Sur 0 -- -- 66
2019-04-05 05:00:00 7.4 9 Sur 18 Sudoeste 0 -- -- 62
2019-04-05 04:00:00 7.8 6 Sudoeste 15 Sur 0 -- -- 55
2019-04-05 03:00:00 7.7 4 Sudoeste 9 Sudoeste 0 -- -- 58
2019-04-05 02:00:00 7.9 4 Sudeste 8 Sur 0 -- -- 59
2019-04-05 01:00:00 8.2 2 Noroeste 21 Sudeste 0 -- -- 63
2019-04-05 00:00:00 9.6 11 Sudeste 19 Sudeste 0 -- -- 43
2019-04-04 23:00:00 9.3 9 Sudeste 17 Sudeste 0 -- -- 43
2019-04-04 22:00:00 10.3 4 Sudeste 6 Sudeste 0 -- -- 38
2019-04-04 21:00:00 11.2 3 Sur 14 Oeste 0 -- -- 35
2019-04-04 20:00:00 12.9 6 Oeste 17 Sudoeste 0 -- -- 30
2019-04-04 19:00:00 14.2 5 Sudoeste 19 Sudoeste 0 -- -- 25
2019-04-04 18:00:00 15.2 7 Noroeste 19 Oeste 0 -- -- 23
2019-04-04 17:00:00 14.5 6 Oeste 18 Oeste 0 -- -- 23
2019-04-04 16:00:00 14.2 5 Oeste 23 Noroeste 0 -- -- 22
2019-04-04 15:00:00 13.9 7 Sudoeste 20 Oeste 0 -- -- 24
2019-04-04 14:00:00 12.8 6 Oeste 16 Oeste 0 -- -- 27
2019-04-04 13:00:00 11.1 6 Noroeste 18 Noroeste 0 -- -- 32
2019-04-04 12:00:00 10 3 Oeste 13 Oeste 0 -- -- 37
2019-04-04 11:00:00 8.5 3 Sur 8 Norte 0 -- -- 42
2019-04-04 10:00:00 6.7 4 Norte 8 Norte 0 -- -- 50
2019-04-04 09:00:00 1.6 0 Calma 5 Nordeste 0 -- -- 76
2019-04-04 08:00:00 0 2 Nordeste 4 Nordeste 0 -- -- 79
2019-04-04 07:00:00 0.7 2 Nordeste 5 Nordeste 0 -- -- 78
2019-04-04 06:00:00 2.4 0 Calma 12 Norte 0 -- -- 72
2019-04-04 05:00:00 2.1 2 Nordeste 5 Nordeste 0 -- -- 75
2019-04-04 04:00:00 3.1 2 Nordeste 4 Este 0 -- -- 70
2019-04-04 03:00:00 4.4 0 Calma 10 Nordeste 0 -- -- 64
2019-04-04 02:00:00 6.2 5 Nordeste 10 Nordeste 0 -- -- 56
2019-04-04 01:00:00 7.2 6 Norte 10 Nordeste 0 -- -- 48
2019-04-04 00:00:00 9.1 5 Norte 19 Noroeste 0 -- -- 42
2019-04-03 23:00:00 10.3 7 Norte 24 Noroeste 0 -- -- 42
2019-04-03 22:00:00 11.2 11 Norte 23 Norte 0 -- -- 41
2019-04-03 21:00:00 12.1 13 Norte 31 Noroeste 0 -- -- 36
2019-04-03 20:00:00 13.6 9 Noroeste 38 Norte 0 -- -- 40
2019-04-03 19:00:00 15.7 13 Noroeste 34 Noroeste 0 -- -- 40
2019-04-03 18:00:00 18 16 Noroeste 37 Oeste 0 -- -- 32
2019-04-03 17:00:00 18.9 15 Oeste 35 Oeste 0 -- -- 28
2019-04-03 16:00:00 19 15 Oeste 39 Oeste 0 -- -- 30
2019-04-03 15:00:00 18.4 16 Oeste 33 Oeste 0 -- -- 31
2019-04-03 14:00:00 17.6 20 Oeste 39 Oeste 0 -- -- 26
2019-04-03 13:00:00 16.8 17 Oeste 37 Sudoeste 0 -- -- 43
2019-04-03 12:00:00 15.4 11 Oeste 24 Oeste 0 -- -- 55
2019-04-03 11:00:00 12.7 9 Sudoeste 19 Sudoeste 0 -- -- 69
2019-04-03 10:00:00 9.9 5 Sur 11 Sur 0 -- -- 78
2019-04-03 09:00:00 6.9 3 Sur 9 Sur 0 -- -- 86
2019-04-03 08:00:00 6.8 4 Sur 8 Sudeste 0 -- -- 86
2019-04-03 07:00:00 7.1 3 Sur 5 Sudeste 0 -- -- 86
2019-04-03 06:00:00 7.4 2 Sur 6 Sur 0 -- -- 88
2019-04-03 05:00:00 7.8 0 Calma 5 Sudeste 0 -- -- 91
2019-04-03 04:00:00 8.2 0 Calma 7 Sur 0 -- -- 89
2019-04-03 03:00:00 8.4 5 Sudeste 9 Sudeste 0 -- -- 87
2019-04-03 02:00:00 8.7 3 Sur 9 Sudeste 0 -- -- 86
2019-04-03 01:00:00 8.4 3 Sudeste 8 Sudeste 0 -- -- 87
2019-04-03 00:00:00 9 0 Calma 6 Nordeste 0 -- -- 84
2019-04-02 23:00:00 10.6 0 Calma 4 Nordeste 0 -- -- 79
2019-04-02 22:00:00 11.5 2 Este 9 Sudeste 0 -- -- 75
2019-04-02 21:00:00 12.1 3 Nordeste 16 Norte 0 -- -- 73
2019-04-02 20:00:00 12.9 9 Norte 30 Norte 0 -- -- 69
2019-04-02 19:00:00 17.2 9 Oeste 26 Sudoeste 0 -- -- 45
2019-04-02 18:00:00 18 9 Oeste 24 Oeste 0 -- -- 43
2019-04-02 17:00:00 15.5 9 Oeste 32 Oeste 0 -- -- 60
2019-04-02 16:00:00 18 10 Oeste 24 Sudoeste 0 -- -- 51
2019-04-02 15:00:00 16.4 8 Oeste 21 Oeste 0 -- -- 59
2019-04-02 14:00:00 15.2 7 Oeste 18 Sudoeste 0 -- -- 68
2019-04-02 13:00:00 14 8 Oeste 15 Sudoeste 0 -- -- 76
2019-04-02 12:00:00 11.3 6 Sur 11 Sudoeste 0 -- -- 87
2019-04-02 11:00:00 10.4 3 Oeste 7 Sudoeste 0 -- -- 91
2019-04-02 10:00:00 9.4 0 Calma 5 Sur 0 -- -- 94
2019-04-02 09:00:00 8.7 2 Sur 5 Sudeste 0 -- -- 95
2019-04-02 08:00:00 8.1 0 Calma 4 Nordeste 0 -- -- 96
2019-04-02 07:00:00 7.9 2 Nordeste 4 Sudeste 0 -- -- 95
2019-04-02 06:00:00 8.5 0 Calma 3 Sur 0 -- -- 95
2019-04-02 05:00:00 8.9 2 Sudeste 10 Sudeste 0 -- -- 95
2019-04-02 04:00:00 9 5 Sudeste 10 Sudeste 0 -- -- 94
2019-04-02 03:00:00 9.1 3 Sudeste 6 Sudeste 0 -- -- 92
2019-04-02 02:00:00 9.6 0 Calma 3 Este 0 -- -- 90
2019-04-02 01:00:00 9.9 0 Calma 15 Sudoeste 0 -- -- 88
2019-04-02 00:00:00 9.9 5 Sudoeste 21 Sudeste 0 -- -- 91
2019-04-01 23:00:00 10.1 11 Sudeste 19 Sudeste 0 -- -- 91
2019-04-01 22:00:00 10.1 9 Sudeste 17 Sudeste 0 -- -- 88
2019-04-01 21:00:00 10.9 0 Calma 4 Sudoeste 0 -- -- 84
2019-04-01 20:00:00 11.7 2 Sur 9 Sur 0 -- -- 81
2019-04-01 19:00:00 12 4 Sur 15 Sur 0 -- -- 81
2019-04-01 18:00:00 11 10 Sur 28 Sur 0 -- -- 86
2019-04-01 17:00:00 13.2 14 Sur 24 Sur 0 -- -- 75
2019-04-01 16:00:00 15.8 4 Sudoeste 13 Sudoeste 0 -- -- 59
2019-04-01 15:00:00 15.8 5 Sudoeste 16 Sudoeste 0 -- -- 60
2019-04-01 14:00:00 14.2 8 Sur 19 Sur 0 -- -- 69
2019-04-01 13:00:00 13.6 8 Sur 14 Sudeste 0 -- -- 73
2019-04-01 12:00:00 13 8 Sudeste 16 Sudeste 0 -- -- 74
2019-04-01 11:00:00 10.9 8 Sur 16 Sudeste 0 -- -- 89
2019-04-01 10:00:00 9.2 8 Sudeste 15 Sur 0 -- -- 96
2019-04-01 09:00:00 8.7 9 Sudeste 16 Sudeste 0 -- -- 96
2019-04-01 08:00:00 8.5 9 Sudeste 18 Sudeste 0 -- -- 96
2019-04-01 07:00:00 8.5 11 Sudeste 21 Este 0 -- -- 95
2019-04-01 06:00:00 8.3 10 Sudeste 17 Este 0 -- -- 96
2019-04-01 05:00:00 8.3 5 Sudeste 14 Sudeste 0 -- -- 96
2019-04-01 04:00:00 8.3 5 Sudeste 9 Sudeste 0 -- -- 96
2019-04-01 03:00:00 8.4 3 Este 6 Este 0 -- -- 95
2019-04-01 02:00:00 8.4 3 Sudeste 19 Sudeste 0 -- -- 95
2019-04-01 01:00:00 8.4 9 Sudeste 20 Sudeste 0 -- -- 95
2019-04-01 00:00:00 8.4 10 Sudeste 23 Este 0 -- -- 95
2019-03-31 23:00:00 8.4 12 Sudeste 27 Este 0 -- -- 95
2019-03-31 22:00:00 8.6 9 Este 19 Sudeste 0 -- -- 95
2019-03-31 21:00:00 8.7 7 Este 17 Sudeste 0 -- -- 95
2019-03-31 20:00:00 9.1 6 Sudeste 19 Sudeste 0 -- -- 92
2019-03-31 19:00:00 9.4 9 Este 22 Este 0 -- -- 90
2019-03-31 18:00:00 9.6 11 Sudeste 24 Sudeste 0 -- -- 88
2019-03-31 17:00:00 9.6 12 Sudeste 25 Este 0 -- -- 88
2019-03-31 16:00:00 10 10 Este 22 Este 0 -- -- 87
2019-03-31 15:00:00 10.1 9 Sudeste 21 Sudeste 0 -- -- 87
2019-03-31 14:00:00 9.3 7 Sudeste 19 Sudeste 0 -- -- 91
2019-03-31 13:00:00 8.4 11 Sudeste 23 Sudeste 0 -- -- 90
2019-03-31 12:00:00 7.3 13 Este 29 Sudeste 0 -- -- 93
2019-03-31 11:00:00 6.6 21 Este 39 Este 0 -- -- 92
2019-03-31 10:00:00 6.3 22 Este 38 Este 0 -- -- 91
2019-03-31 09:00:00 6.3 22 Este 41 Este 0 -- -- 89
2019-03-31 08:00:00 7.2 19 Sudeste 42 Este 0 -- -- 85
2019-03-31 07:00:00 7.4 22 Sudeste 39 Este 0 -- -- 81
2019-03-31 06:00:00 7 21 Sudeste 40 Este 0 -- -- 81
2019-03-31 05:00:00 6.5 22 Este 38 Este 0 -- -- 82
2019-03-31 03:00:00 7.2 5 Sudeste 27 Sudeste 0 -- -- 73
2019-03-31 01:00:00 7.8 18 Sudeste 38 Este 0 -- -- 68
2019-03-31 00:00:00 8.5 20 Este 41 Este 0 -- -- 65
2019-03-30 23:00:00 9 24 Este 40 Este 0 -- -- 64
2019-03-30 22:00:00 10.2 23 Sudeste 43 Este 0 -- -- 65
2019-03-30 21:00:00 11.5 24 Sudeste 41 Este 0 -- -- 62
2019-03-30 20:00:00 13.7 22 Sudeste 45 Sudeste 0 -- -- 53
2019-03-30 19:00:00 15.8 19 Sudeste 33 Sudeste 0 -- -- 46
2019-03-30 18:00:00 17.4 15 Sudeste 31 Sudeste 0 -- -- 40
2019-03-30 17:00:00 18 16 Sudeste 35 Sudeste 0 -- -- 38
2019-03-30 16:00:00 17.5 17 Sudeste 31 Sudeste 0 -- -- 38
2019-03-30 15:00:00 16.9 16 Sudeste 33 Este 0 -- -- 39
2019-03-30 14:00:00 16.1 15 Sudeste 32 Sudeste 0 -- -- 40
2019-03-30 13:00:00 14.6 17 Sudeste 32 Sudeste 0 -- -- 45
2019-03-30 12:00:00 13 16 Sudeste 41 Este 0 -- -- 51
2019-03-30 11:00:00 10.8 20 Sudeste 38 Sudeste 0 -- -- 60
2019-03-30 10:00:00 8.9 24 Sudeste 44 Este 0 -- -- 68
2019-03-30 09:00:00 7.2 22 Sudeste 39 Sudeste 0 -- -- 79
2019-03-30 08:00:00 5.5 13 Sudeste 27 Este 0 -- -- 86
2019-03-30 07:00:00 4.7 3 Nordeste 23 Sudeste 0 -- -- 87
2019-03-30 06:00:00 5.2 11 Este 33 Sudeste 0 -- -- 84
2019-03-30 05:00:00 5.5 20 Sudeste 38 Este 0 -- -- 82
2019-03-30 04:00:00 5.6 22 Sudeste 42 Sudeste 0 -- -- 81
2019-03-30 03:00:00 5.6 22 Sudeste 39 Este 0 -- -- 71
2019-03-30 02:00:00 6.1 21 Sudeste 44 Sudeste 0 -- -- 64
2019-03-30 01:00:00 7 23 Sudeste 43 Sudeste 0 -- -- 61
2019-03-30 00:00:00 7.5 22 Sudeste 41 Sudeste 0 -- -- 58
2019-03-29 23:00:00 8.3 24 Sudeste 48 Sudeste 0 -- -- 55
2019-03-29 22:00:00 9.2 24 Sudeste 44 Este 0 -- -- 55
2019-03-29 21:00:00 10.4 26 Sudeste 41 Sudeste 0 -- -- 55
2019-03-29 20:00:00 12 14 Sudeste 35 Sudeste 0 -- -- 48
2019-03-29 19:00:00 13.6 19 Sudeste 37 Sudeste 0 -- -- 42
2019-03-29 18:00:00 14.6 20 Sudeste 40 Sudeste 0 -- -- 40
2019-03-29 17:00:00 15.6 21 Sudeste 42 Sudeste 0 -- -- 38
2019-03-29 16:00:00 14.5 22 Sudeste 42 Sudeste 0 -- -- 41
2019-03-29 15:00:00 15 25 Sudeste 45 Sudeste 0 -- -- 37
2019-03-29 14:00:00 15.1 25 Sudeste 50 Este 0 -- -- 36
2019-03-29 13:00:00 14.4 23 Sudeste 44 Sudeste 0 -- -- 36
2019-03-29 12:00:00 12.9 24 Sudeste 41 Sudeste 0 -- -- 37
2019-03-29 11:00:00 12.3 17 Sudeste 35 Sudeste 0 -- -- 38
2019-03-29 10:00:00 10.3 20 Sudeste 36 Sudeste 0 -- -- 42
2019-03-29 09:00:00 8.5 14 Sudeste 27 Sudeste 0 -- -- 48
2019-03-29 08:00:00 5.2 12 Este 24 Este 0 -- -- 58
2019-03-29 07:00:00 4.4 13 Este 26 Este 0 -- -- 59
2019-03-29 06:00:00 4.6 12 Este 26 Este 0 -- -- 60
2019-03-29 05:00:00 4.9 10 Este 24 Este 0 -- -- 56
2019-03-29 04:00:00 5.7 9 Este 25 Este 0 -- -- 55
2019-03-29 03:00:00 6.7 14 Este 29 Este 0 -- -- 48
2019-03-29 02:00:00 7.2 17 Sudeste 29 Este 0 -- -- 48
2019-03-29 01:00:00 7.6 15 Sudeste 27 Este 0 -- -- 46
2019-03-29 00:00:00 8.5 13 Sudeste 29 Sudeste 0 -- -- 42
2019-03-28 23:00:00 9.4 13 Sudeste 30 Sudeste 0 -- -- 35
2019-03-28 22:00:00 10.7 13 Sudeste 24 Sudeste 0 -- -- 32
2019-03-28 21:00:00 12.3 12 Sudeste 23 Sudeste 0 -- -- 30
2019-03-28 20:00:00 13.7 8 Este 18 Sudeste 0 -- -- 28
2019-03-28 19:00:00 16 11 Sudeste 32 Sudeste 0 -- -- 24
2019-03-28 18:00:00 17 14 Sudeste 27 Sudeste 0 -- -- 22
2019-03-28 17:00:00 18 14 Sudeste 29 Sudeste 0 -- -- 20
2019-03-28 16:00:00 17.7 11 Sudeste 24 Este 0 -- -- 20
2019-03-28 15:00:00 17.4 12 Sudeste 30 Sudeste 0 -- -- 20
2019-03-28 14:00:00 16.5 11 Sudeste 27 Este 0 -- -- 21
2019-03-28 13:00:00 15.8 13 Sudeste 27 Sudeste 0 -- -- 22
2019-03-28 12:00:00 14.9 13 Sudeste 27 Sudeste 0 -- -- 21
2019-03-28 11:00:00 13.5 12 Sudeste 25 Sudeste 0 -- -- 21
2019-03-28 10:00:00 11.9 8 Sudeste 16 Sudeste 0 -- -- 28
2019-03-28 09:00:00 8.9 4 Este 13 Este 0 -- -- 43
2019-03-28 08:00:00 4 0 Calma 12 Este 0 -- -- 57
2019-03-28 07:00:00 3.9 2 Nordeste 14 Nordeste 0 -- -- 57
2019-03-28 06:00:00 4.9 6 Este 21 Sudeste 0 -- -- 52
2019-03-28 05:00:00 4.8 12 Este 21 Sudeste 0 -- -- 52
2019-03-28 04:00:00 5.1 12 Este 23 Este 0 -- -- 53
2019-03-28 03:00:00 5.9 11 Este 20 Este 0 -- -- 52
2019-03-28 02:00:00 6.4 10 Este 21 Este 0 -- -- 49
2019-03-28 01:00:00 7.3 9 Sudeste 26 Este 0 -- -- 43
2019-03-28 00:00:00 8.3 17 Sudeste 30 Este 0 -- -- 37
2019-03-27 23:00:00 9.6 18 Sudeste 35 Sudeste 0 -- -- 30
2019-03-27 22:00:00 10.7 12 Sudeste 21 Sudeste 0 -- -- 28
2019-03-27 21:00:00 11.8 9 Sudeste 15 Este 0 -- -- 24
2019-03-27 20:00:00 12.7 7 Sudeste 11 Sudeste 0 -- -- 26
2019-03-27 19:00:00 15.4 6 Sur 20 Sudeste 0 -- -- 24
2019-03-27 18:00:00 16.6 10 Sudeste 22 Sudeste 0 -- -- 23
2019-03-27 17:00:00 17.6 11 Sudeste 26 Sudeste 0 -- -- 23
2019-03-27 16:00:00 17.3 10 Sudeste 22 Sudeste 0 -- -- 24
2019-03-27 15:00:00 17 9 Este 22 Este 0 -- -- 24
2019-03-27 14:00:00 16.3 7 Este 24 Sudeste 0 -- -- 24
2019-03-27 13:00:00 14.9 11 Sudeste 28 Oeste 0 -- -- 27
2019-03-27 12:00:00 13.7 7 Sudeste 24 Sudeste 0 -- -- 32
2019-03-27 11:00:00 12.2 12 Sudeste 24 Sudeste 0 -- -- 35
2019-03-27 10:00:00 10.3 13 Sudeste 27 Este 0 -- -- 43
2019-03-27 09:00:00 8.4 13 Este 26 Este 0 -- -- 49
2019-03-27 08:00:00 5.4 11 Este 24 Este 0 -- -- 62
2019-03-27 07:00:00 4.5 14 Este 28 Este 0 -- -- 68
2019-03-27 06:00:00 4.6 14 Sudeste 27 Sudeste 0 -- -- 76
2019-03-27 05:00:00 5.3 17 Sudeste 36 Sudeste 0 -- -- 77
2019-03-27 04:00:00 5.5 22 Sudeste 39 Este 0 -- -- 75
2019-03-27 03:00:00 6.1 18 Sudeste 46 Este 0 -- -- 75
2019-03-27 02:00:00 6.3 25 Este 48 Este 0 -- -- 74
2019-03-27 01:00:00 6.4 27 Este 49 Este 0 -- -- 72
2019-03-27 00:00:00 7.1 27 Este 49 Este 0 -- -- 72